createdAt,value
2019-02-14T00:00:51.039Z,20.00
2019-02-14T00:01:51.035Z,16.00
2019-02-14T00:02:51.020Z,16.00
2019-02-14T00:03:51.008Z,16.00
2019-02-14T00:05:01.590Z,16.00
2019-02-14T00:05:50.987Z,16.00
2019-02-14T00:06:50.975Z,16.00
2019-02-14T00:07:50.983Z,16.00
2019-02-14T00:08:50.958Z,16.00
2019-02-14T00:09:50.975Z,16.00
2019-02-14T00:10:50.986Z,16.00
2019-02-14T00:11:50.930Z,16.00
2019-02-14T00:12:50.912Z,16.00
2019-02-14T00:13:50.930Z,16.00
2019-02-14T00:14:50.894Z,16.00
2019-02-14T00:15:50.882Z,16.00
2019-02-14T00:16:50.921Z,16.00
2019-02-14T00:17:50.864Z,16.00
2019-02-14T00:18:50.851Z,16.00
2019-02-14T00:19:50.839Z,16.00
2019-02-14T00:20:50.831Z,16.00
2019-02-14T00:21:50.838Z,16.00
2019-02-14T00:22:50.855Z,16.00
2019-02-14T00:23:50.798Z,16.00
2019-02-14T00:24:50.786Z,16.00
2019-02-14T00:25:50.778Z,16.00
2019-02-14T00:26:50.771Z,16.00
2019-02-14T00:27:50.769Z,16.00
2019-02-14T00:28:50.788Z,16.00
2019-02-14T00:29:50.734Z,16.00
2019-02-14T00:30:50.740Z,16.00
2019-02-14T00:31:50.717Z,16.00
2019-02-14T00:32:50.710Z,16.00
2019-02-14T00:33:50.710Z,16.00
2019-02-14T00:34:50.736Z,16.00
2019-02-14T00:36:03.117Z,16.00
2019-02-14T00:36:50.663Z,16.00
2019-02-14T00:37:50.651Z,16.00
2019-02-14T00:38:50.651Z,16.00
2019-02-14T00:39:50.632Z,16.00
2019-02-14T00:40:50.667Z,16.00
2019-02-14T00:41:50.614Z,16.00
2019-02-14T00:42:50.619Z,16.00
2019-02-14T00:43:50.594Z,16.00
2019-02-14T00:44:50.584Z,16.00
2019-02-14T00:45:50.593Z,16.00
2019-02-14T00:46:50.602Z,16.00
2019-02-14T00:47:50.551Z,16.00
2019-02-14T00:48:50.539Z,16.00
2019-02-14T00:49:50.530Z,16.00
2019-02-14T00:50:50.538Z,16.00
2019-02-14T00:51:50.508Z,16.00
2019-02-14T00:52:50.619Z,16.00
2019-02-14T00:53:50.484Z,16.00
2019-02-14T00:54:50.472Z,16.00
2019-02-14T00:55:50.468Z,16.00
2019-02-14T00:56:50.474Z,16.00
2019-02-14T00:57:50.438Z,16.00
2019-02-14T00:58:50.473Z,16.00
2019-02-14T00:59:50.422Z,16.00
2019-02-14T01:00:50.410Z,16.00
2019-02-14T01:01:50.402Z,16.00
2019-02-14T01:02:50.387Z,16.00
2019-02-14T01:03:50.406Z,16.00
2019-02-14T01:04:50.407Z,16.00
2019-02-14T01:05:50.362Z,16.00
2019-02-14T01:07:00.732Z,16.00
2019-02-14T01:07:50.332Z,16.00
2019-02-14T01:08:50.326Z,16.00
2019-02-14T01:09:50.318Z,16.00
2019-02-14T01:10:50.347Z,16.00
2019-02-14T01:11:50.297Z,16.00
2019-02-14T01:12:50.309Z,16.00
2019-02-14T01:13:50.279Z,16.00
2019-02-14T01:14:50.265Z,16.00
2019-02-14T01:15:50.280Z,16.00
2019-02-14T01:16:50.643Z,16.00
2019-02-14T01:17:50.244Z,16.00
2019-02-14T01:18:50.222Z,16.00
2019-02-14T01:19:50.211Z,16.00
2019-02-14T01:20:50.240Z,16.00
2019-02-14T01:21:50.196Z,16.00
2019-02-14T01:22:50.218Z,16.00
2019-02-14T01:23:50.179Z,16.00
2019-02-14T01:24:50.191Z,16.00
2019-02-14T01:25:50.152Z,16.00
2019-02-14T01:26:50.139Z,16.00
2019-02-14T01:27:50.124Z,16.00
2019-02-14T01:28:50.156Z,16.00
2019-02-14T01:29:50.104Z,16.00
2019-02-14T01:30:50.131Z,16.00
2019-02-14T01:31:50.088Z,16.00
2019-02-14T01:32:50.084Z,16.00
2019-02-14T01:33:50.062Z,16.00
2019-02-14T01:34:50.098Z,16.00
2019-02-14T01:35:50.050Z,16.00
2019-02-14T01:36:50.063Z,16.00
2019-02-14T01:38:00.034Z,16.00
2019-02-14T01:38:50.006Z,16.00
2019-02-14T01:39:49.997Z,16.00
2019-02-14T01:40:50.027Z,16.00
2019-02-14T01:41:49.984Z,16.00
2019-02-14T01:42:49.969Z,16.00
2019-02-14T01:43:49.957Z,16.00
2019-02-14T01:44:49.945Z,16.00
2019-02-14T01:45:49.931Z,16.00
2019-02-14T01:46:49.961Z,16.00
2019-02-14T01:47:49.912Z,16.00
2019-02-14T01:48:49.904Z,16.00
2019-02-14T01:49:49.891Z,16.00
2019-02-14T01:50:49.879Z,16.00
2019-02-14T01:51:49.875Z,16.00
2019-02-14T01:52:50.033Z,16.00
2019-02-14T01:53:49.848Z,16.00
2019-02-14T01:54:49.843Z,16.00
2019-02-14T01:55:49.835Z,16.00
2019-02-14T01:56:49.830Z,16.00
2019-02-14T01:57:49.809Z,16.00
2019-02-14T01:58:49.838Z,16.00
2019-02-14T01:59:49.785Z,16.00
2019-02-14T02:00:49.775Z,16.00
2019-02-14T02:01:49.764Z,16.00
2019-02-14T02:02:49.752Z,16.00
2019-02-14T02:03:49.746Z,16.00
2019-02-14T02:04:49.913Z,16.00
2019-02-14T02:05:50.995Z,16.00
2019-02-14T02:06:49.740Z,16.00
2019-02-14T02:07:49.705Z,16.00
2019-02-14T02:09:02.112Z,16.00
2019-02-14T02:09:49.680Z,16.00
2019-02-14T02:10:49.695Z,16.00
2019-02-14T02:11:49.661Z,16.00
2019-02-14T02:12:49.650Z,16.00
2019-02-14T02:13:49.657Z,20.00
2019-02-14T02:14:49.632Z,20.00
2019-02-14T02:15:49.623Z,20.00
2019-02-14T02:16:49.669Z,20.00
2019-02-14T02:17:49.597Z,20.00
2019-02-14T02:18:49.592Z,20.00
2019-02-14T02:19:49.577Z,20.00
2019-02-14T02:20:49.563Z,20.00
2019-02-14T02:21:49.598Z,20.00
2019-02-14T02:22:49.564Z,20.00
2019-02-14T02:23:50.134Z,20.00
2019-02-14T02:24:49.553Z,20.00
2019-02-14T02:25:49.508Z,20.00
2019-02-14T02:26:49.500Z,20.00
2019-02-14T02:27:49.494Z,20.00
2019-02-14T02:28:49.654Z,20.00
2019-02-14T02:29:49.468Z,20.00
2019-02-14T02:30:49.457Z,20.00
2019-02-14T02:31:49.456Z,20.00
2019-02-14T02:32:49.433Z,20.00
2019-02-14T02:33:49.428Z,20.00
2019-02-14T02:34:49.500Z,20.00
2019-02-14T02:35:49.406Z,20.00
2019-02-14T02:36:49.393Z,20.00
2019-02-14T02:37:49.410Z,20.00
2019-02-14T02:38:49.377Z,20.00
2019-02-14T02:40:00.332Z,20.00
2019-02-14T02:40:49.370Z,20.00
2019-02-14T02:41:49.342Z,20.00
2019-02-14T02:42:49.335Z,20.00
2019-02-14T02:43:49.328Z,20.00
2019-02-14T02:44:49.307Z,20.00
2019-02-14T02:45:49.757Z,20.00
2019-02-14T02:46:49.289Z,20.00
2019-02-14T02:47:49.276Z,20.00
2019-02-14T02:48:49.266Z,20.00
2019-02-14T02:49:49.256Z,20.00
2019-02-14T02:50:49.250Z,16.00
2019-02-14T02:51:49.446Z,16.00
2019-02-14T02:52:49.227Z,16.00
2019-02-14T02:53:49.217Z,16.00
2019-02-14T02:54:49.221Z,16.00
2019-02-14T02:55:49.202Z,16.00
2019-02-14T02:56:49.209Z,16.00
2019-02-14T02:57:49.208Z,16.00
2019-02-14T02:58:49.169Z,16.00
2019-02-14T02:59:49.154Z,16.00
2019-02-14T03:00:49.136Z,16.00
2019-02-14T03:01:49.128Z,16.00
2019-02-14T03:02:49.122Z,16.00
2019-02-14T03:03:49.143Z,16.00
2019-02-14T03:04:49.093Z,16.00
2019-02-14T03:05:49.094Z,16.00
2019-02-14T03:06:49.071Z,16.00
2019-02-14T03:07:49.063Z,16.00
2019-02-14T03:08:49.051Z,16.00
2019-02-14T03:09:49.075Z,16.00
2019-02-14T03:10:59.329Z,16.00
2019-02-14T03:11:49.055Z,16.00
2019-02-14T03:12:49.025Z,16.00
2019-02-14T03:13:48.998Z,16.00
2019-02-14T03:14:48.993Z,16.00
2019-02-14T03:15:49.043Z,16.00
2019-02-14T03:16:48.991Z,16.00
2019-02-14T03:17:48.953Z,16.00
2019-02-14T03:18:48.958Z,16.00
2019-02-14T03:19:48.949Z,16.00
2019-02-14T03:20:48.950Z,16.00
2019-02-14T03:21:48.969Z,16.00
2019-02-14T03:22:48.916Z,16.00
2019-02-14T03:23:48.894Z,16.00
2019-02-14T03:24:48.885Z,16.00
2019-02-14T03:25:48.870Z,16.00
2019-02-14T03:26:48.870Z,16.00
2019-02-14T03:27:48.888Z,16.00
2019-02-14T03:28:48.837Z,12.00
2019-02-14T03:29:48.847Z,16.00
2019-02-14T03:30:48.825Z,16.00
2019-02-14T03:31:48.809Z,16.00
2019-02-14T03:32:48.797Z,16.00
2019-02-14T03:33:48.952Z,16.00
2019-02-14T03:34:48.770Z,16.00
2019-02-14T03:35:48.766Z,16.00
2019-02-14T03:36:48.752Z,16.00
2019-02-14T03:37:48.744Z,16.00
2019-02-14T03:38:48.733Z,16.00
2019-02-14T03:39:48.902Z,16.00
2019-02-14T03:40:48.711Z,16.00
2019-02-14T03:41:58.768Z,16.00
2019-02-14T03:42:48.702Z,16.00
2019-02-14T03:43:48.680Z,16.00
2019-02-14T03:44:48.667Z,16.00
2019-02-14T03:45:48.703Z,16.00
2019-02-14T03:46:48.653Z,16.00
2019-02-14T03:47:48.636Z,16.00
2019-02-14T03:48:48.627Z,16.00
2019-02-14T03:49:55.629Z,16.00
2019-02-14T03:50:48.635Z,16.00
2019-02-14T03:51:48.650Z,16.00
2019-02-14T03:52:48.603Z,16.00
2019-02-14T03:53:48.575Z,16.00
2019-02-14T03:54:48.566Z,16.00
2019-02-14T03:55:48.574Z,16.00
2019-02-14T03:56:48.539Z,16.00
2019-02-14T03:57:48.568Z,16.00
2019-02-14T03:58:48.557Z,16.00
2019-02-14T03:59:48.532Z,16.00
2019-02-14T04:00:48.497Z,16.00
2019-02-14T04:01:48.495Z,16.00
2019-02-14T04:02:48.498Z,16.00
2019-02-14T04:03:48.489Z,16.00
2019-02-14T04:04:48.458Z,16.00
2019-02-14T04:05:48.449Z,16.00
2019-02-14T04:06:48.445Z,16.00
2019-02-14T04:07:48.421Z,16.00
2019-02-14T04:08:48.411Z,16.00
2019-02-14T04:09:48.577Z,16.00
2019-02-14T04:10:48.412Z,16.00
2019-02-14T04:11:48.404Z,16.00
2019-02-14T04:12:48.372Z,16.00
2019-02-14T04:13:48.373Z,16.00
2019-02-14T04:14:48.362Z,16.00
2019-02-14T04:15:48.391Z,16.00
2019-02-14T04:16:48.326Z,16.00
2019-02-14T04:17:48.327Z,16.00
2019-02-14T04:18:48.318Z,16.00
2019-02-14T04:19:48.295Z,16.00
2019-02-14T04:20:58.804Z,16.00
2019-02-14T04:21:48.295Z,16.00
2019-02-14T04:22:48.283Z,16.00
2019-02-14T04:23:48.252Z,16.00
2019-02-14T04:24:48.255Z,16.00
2019-02-14T04:25:48.243Z,16.00
2019-02-14T04:26:48.286Z,16.00
2019-02-14T04:27:48.215Z,16.00
2019-02-14T04:28:48.202Z,16.00
2019-02-14T04:29:48.212Z,16.00
2019-02-14T04:30:48.180Z,16.00
2019-02-14T04:31:48.173Z,16.00
2019-02-14T04:32:48.202Z,16.00
2019-02-14T04:33:48.168Z,16.00
2019-02-14T04:34:48.134Z,16.00
2019-02-14T04:35:48.131Z,16.00
2019-02-14T04:36:48.125Z,16.00
2019-02-14T04:37:48.118Z,16.00
2019-02-14T04:38:48.161Z,16.00
2019-02-14T04:39:48.115Z,16.00
2019-02-14T04:40:48.073Z,16.00
2019-02-14T04:41:48.071Z,16.00
2019-02-14T04:42:48.055Z,16.00
2019-02-14T04:43:48.060Z,16.00
2019-02-14T04:44:48.097Z,16.00
2019-02-14T04:45:48.020Z,16.00
2019-02-14T04:46:48.007Z,16.00
2019-02-14T04:47:47.997Z,20.00
2019-02-14T04:48:48.007Z,16.00
2019-02-14T04:49:47.974Z,16.00
2019-02-14T04:50:48.003Z,20.00
2019-02-14T04:52:00.123Z,16.00
2019-02-14T04:52:47.960Z,16.00
2019-02-14T04:53:47.950Z,20.00
2019-02-14T04:54:47.927Z,16.00
2019-02-14T04:55:47.915Z,16.00
2019-02-14T04:56:47.948Z,20.00
2019-02-14T04:57:47.890Z,16.00
2019-02-14T04:58:47.940Z,16.00
2019-02-14T04:59:47.875Z,16.00
2019-02-14T05:00:47.870Z,16.00
2019-02-14T05:01:47.846Z,16.00
2019-02-14T05:02:47.907Z,20.00
2019-02-14T05:03:47.826Z,16.00
2019-02-14T05:04:47.819Z,16.00
2019-02-14T05:05:47.802Z,16.00
2019-02-14T05:06:47.797Z,20.00
2019-02-14T05:07:47.793Z,20.00
2019-02-14T05:08:47.793Z,20.00
2019-02-14T05:09:47.764Z,20.00
2019-02-14T05:10:47.754Z,16.00
2019-02-14T05:11:47.752Z,20.00
2019-02-14T05:12:47.738Z,20.00
2019-02-14T05:13:47.718Z,16.00
2019-02-14T05:14:47.766Z,16.00
2019-02-14T05:15:47.709Z,20.00
2019-02-14T05:16:47.690Z,16.00
2019-02-14T05:17:47.677Z,20.00
2019-02-14T05:18:47.677Z,20.00
2019-02-14T05:19:47.667Z,20.00
2019-02-14T05:20:47.700Z,20.00
2019-02-14T05:21:47.636Z,20.00
2019-02-14T05:22:58.094Z,24.00
2019-02-14T05:23:47.630Z,28.00
2019-02-14T05:24:47.604Z,28.00
2019-02-14T05:25:47.596Z,32.00
2019-02-14T05:26:47.620Z,36.00
2019-02-14T05:27:47.580Z,36.00
2019-02-14T05:28:47.558Z,36.00
2019-02-14T05:29:47.624Z,36.00
2019-02-14T05:30:47.550Z,40.00
2019-02-14T05:31:47.533Z,44.00
2019-02-14T05:32:47.565Z,48.00
2019-02-14T05:33:47.551Z,52.00
2019-02-14T05:34:47.500Z,56.00
2019-02-14T05:35:47.483Z,60.00
2019-02-14T05:36:52.671Z,64.00
2019-02-14T05:37:48.634Z,72.00
2019-02-14T05:38:47.454Z,80.00
2019-02-14T05:39:47.441Z,92.00
2019-02-14T05:40:47.430Z,100.00
2019-02-14T05:41:47.424Z,104.00
2019-02-14T05:42:47.426Z,124.00
2019-02-14T05:43:47.547Z,140.00
2019-02-14T05:44:47.390Z,152.00
2019-02-14T05:45:47.420Z,156.00
2019-02-14T05:46:47.393Z,176.00
2019-02-14T05:47:47.359Z,188.00
2019-02-14T05:48:47.349Z,208.00
2019-02-14T05:49:47.406Z,208.00
2019-02-14T05:50:47.350Z,228.00
2019-02-14T05:51:47.343Z,244.00
2019-02-14T05:52:47.306Z,256.00
2019-02-14T05:53:59.233Z,268.00
2019-02-14T05:54:47.283Z,300.00
2019-02-14T05:55:47.314Z,336.00
2019-02-14T05:56:47.284Z,356.00
2019-02-14T05:57:47.252Z,368.00
2019-02-14T05:58:47.252Z,380.00
2019-02-14T05:59:47.236Z,392.00
2019-02-14T06:00:47.218Z,424.00
2019-02-14T06:01:47.311Z,448.00
2019-02-14T06:02:47.221Z,480.00
2019-02-14T06:03:47.220Z,512.00
2019-02-14T06:04:47.175Z,544.00
2019-02-14T06:05:47.174Z,584.00
2019-02-14T06:06:47.156Z,628.00
2019-02-14T06:07:47.168Z,668.00
2019-02-14T06:08:47.147Z,708.00
2019-02-14T06:09:47.124Z,728.00
2019-02-14T06:10:47.116Z,732.00
2019-02-14T06:11:47.101Z,732.00
2019-02-14T06:12:47.089Z,720.00
2019-02-14T06:13:47.127Z,728.00
2019-02-14T06:14:47.079Z,744.00
2019-02-14T06:15:47.062Z,756.00
2019-02-14T06:16:47.047Z,796.00
2019-02-14T06:17:47.037Z,812.00
2019-02-14T06:18:47.039Z,840.00
2019-02-14T06:19:47.117Z,848.00
2019-02-14T06:20:47.007Z,836.00
2019-02-14T06:21:46.996Z,848.00
2019-02-14T06:22:46.983Z,896.00
2019-02-14T06:23:46.973Z,936.00
2019-02-14T06:24:57.445Z,992.00
2019-02-14T06:25:46.954Z,1116.00
2019-02-14T06:26:46.959Z,1196.00
2019-02-14T06:27:46.942Z,1236.00
2019-02-14T06:28:46.921Z,1216.00
2019-02-14T06:29:46.917Z,1224.00
2019-02-14T06:30:46.978Z,1248.00
2019-02-14T06:31:46.912Z,1248.00
2019-02-14T06:32:46.894Z,1276.00
2019-02-14T06:33:46.869Z,1380.00
2019-02-14T06:34:46.862Z,1520.00
2019-02-14T06:35:46.848Z,1664.00
2019-02-14T06:36:46.871Z,1792.00
2019-02-14T06:37:46.832Z,1900.00
2019-02-14T06:38:46.835Z,1828.00
2019-02-14T06:39:46.801Z,1716.00
2019-02-14T06:40:46.795Z,1736.00
2019-02-14T06:41:46.783Z,1796.00
2019-02-14T06:42:46.844Z,1852.00
2019-02-14T06:43:46.767Z,1888.00
2019-02-14T06:44:46.748Z,1952.00
2019-02-14T06:45:46.750Z,2056.00
2019-02-14T06:46:46.739Z,2084.00
2019-02-14T06:47:46.718Z,2084.00
2019-02-14T06:48:46.755Z,1976.00
2019-02-14T06:49:46.704Z,1896.00
2019-02-14T06:50:46.692Z,1932.00
2019-02-14T06:51:46.675Z,1976.00
2019-02-14T06:52:46.671Z,2116.00
2019-02-14T06:53:46.654Z,2176.00
2019-02-14T06:54:46.696Z,2180.00
2019-02-14T06:55:57.981Z,2252.00
2019-02-14T06:56:46.685Z,2352.00
2019-02-14T06:57:46.620Z,2344.00
2019-02-14T06:58:46.628Z,2348.00
2019-02-14T06:59:46.661Z,2364.00
2019-02-14T07:00:46.626Z,2436.00
2019-02-14T07:01:46.571Z,2604.00
2019-02-14T07:02:46.569Z,2780.00
2019-02-14T07:03:46.570Z,2760.00
2019-02-14T07:04:46.572Z,2868.00
2019-02-14T07:05:46.538Z,2976.00
2019-02-14T07:06:46.534Z,2984.00
2019-02-14T07:07:46.514Z,3076.00
2019-02-14T07:08:46.549Z,3104.00
2019-02-14T07:09:46.497Z,3024.00
2019-02-14T07:10:46.547Z,2844.00
2019-02-14T07:11:46.466Z,2908.00
2019-02-14T07:12:46.454Z,3040.00
2019-02-14T07:13:47.297Z,3368.00
2019-02-14T07:14:46.437Z,3652.00
2019-02-14T07:15:46.440Z,3744.00
2019-02-14T07:16:46.453Z,3712.00
2019-02-14T07:17:46.399Z,3852.00
2019-02-14T07:18:46.413Z,4076.00
2019-02-14T07:19:46.423Z,4288.00
2019-02-14T07:20:46.371Z,4396.00
2019-02-14T07:21:46.388Z,4632.00
2019-02-14T07:22:46.385Z,4776.00
2019-02-14T07:23:46.337Z,4804.00
2019-02-14T07:24:46.325Z,4776.00
2019-02-14T07:25:46.316Z,4696.00
2019-02-14T07:26:58.571Z,4716.00
2019-02-14T07:27:46.335Z,4852.00
2019-02-14T07:28:46.283Z,4952.00
2019-02-14T07:29:46.328Z,4696.00
2019-02-14T07:30:46.262Z,4824.00
2019-02-14T07:31:46.255Z,4584.00
2019-02-14T07:32:46.285Z,4488.00
2019-02-14T07:33:46.230Z,4620.00
2019-02-14T07:34:46.214Z,4632.00
2019-02-14T07:35:46.206Z,4696.00
2019-02-14T07:36:46.208Z,4388.00
2019-02-14T07:37:46.184Z,4228.00
2019-02-14T07:38:46.239Z,4056.00
2019-02-14T07:39:46.163Z,4400.00
2019-02-14T07:40:46.156Z,4652.00
2019-02-14T07:41:46.149Z,4728.00
2019-02-14T07:42:46.131Z,5108.00
2019-02-14T07:43:46.120Z,5536.00
2019-02-14T07:44:46.152Z,6292.00
2019-02-14T07:45:46.116Z,6896.00
2019-02-14T07:46:46.088Z,7008.00
2019-02-14T07:47:46.080Z,7092.00
2019-02-14T07:48:46.067Z,7716.00
2019-02-14T07:49:46.064Z,7968.00
2019-02-14T07:50:46.062Z,7748.00
2019-02-14T07:51:46.042Z,7780.00
2019-02-14T07:52:46.032Z,7800.00
2019-02-14T07:53:46.017Z,7764.00
2019-02-14T07:54:46.007Z,8004.00
2019-02-14T07:55:46.035Z,8100.00
2019-02-14T07:56:45.983Z,7828.00
2019-02-14T07:57:56.130Z,7940.00
2019-02-14T07:58:45.959Z,8244.00
2019-02-14T07:59:45.956Z,7948.00
2019-02-14T08:00:45.942Z,7652.00
2019-02-14T08:01:45.970Z,7888.00
2019-02-14T08:02:45.923Z,9112.00
2019-02-14T08:03:45.910Z,8748.00
2019-02-14T08:04:45.898Z,8244.00
2019-02-14T08:05:45.898Z,8292.00
2019-02-14T08:06:45.876Z,8548.00
2019-02-14T08:07:45.909Z,9032.00
2019-02-14T08:08:45.857Z,9772.00
2019-02-14T08:09:45.852Z,9788.00
2019-02-14T08:10:45.843Z,10404.00
2019-02-14T08:11:45.839Z,11224.00
2019-02-14T08:12:45.814Z,11828.00
2019-02-14T08:13:45.960Z,12304.00
2019-02-14T08:14:45.791Z,13304.00
2019-02-14T08:15:46.395Z,13544.00
2019-02-14T08:16:45.774Z,13676.00
2019-02-14T08:17:45.761Z,14368.00
2019-02-14T08:18:45.750Z,14344.00
2019-02-14T08:19:45.781Z,14244.00
2019-02-14T08:20:45.731Z,14252.00
2019-02-14T08:21:45.721Z,16416.00
2019-02-14T08:22:45.712Z,16032.00
2019-02-14T08:23:45.708Z,14884.00
2019-02-14T08:24:45.687Z,15308.00
2019-02-14T08:25:45.714Z,14392.00
2019-02-14T08:26:45.738Z,16352.00
2019-02-14T08:27:45.709Z,15232.00
2019-02-14T08:28:56.947Z,14828.00
2019-02-14T08:29:45.642Z,15540.00
2019-02-14T08:30:45.628Z,15472.00
2019-02-14T08:31:46.425Z,15552.00
2019-02-14T08:32:45.602Z,15904.00
2019-02-14T08:33:46.430Z,15360.00
2019-02-14T08:34:45.585Z,15220.00
2019-02-14T08:35:45.570Z,16256.00
2019-02-14T08:36:45.591Z,16896.00
2019-02-14T08:37:46.186Z,16128.00
2019-02-14T08:38:45.541Z,16224.00
2019-02-14T08:39:45.528Z,15412.00
2019-02-14T08:40:45.534Z,14852.00
2019-02-14T08:41:45.548Z,14824.00
2019-02-14T08:42:45.538Z,15292.00
2019-02-14T08:43:45.482Z,16128.00
2019-02-14T08:44:53.122Z,16896.00
2019-02-14T08:45:52.450Z,17376.00
2019-02-14T08:46:45.451Z,17568.00
2019-02-14T08:47:53.162Z,17568.00
2019-02-14T08:48:45.442Z,16256.00
2019-02-14T08:49:45.421Z,15548.00
2019-02-14T08:50:45.411Z,14756.00
2019-02-14T08:51:45.399Z,14476.00
2019-02-14T08:52:45.405Z,14996.00
2019-02-14T08:53:45.421Z,15732.00
2019-02-14T08:54:45.434Z,15360.00
2019-02-14T08:55:45.356Z,13728.00
2019-02-14T08:56:45.345Z,14864.00
2019-02-14T08:57:45.343Z,19072.00
2019-02-14T08:58:45.348Z,42624.00
2019-02-14T08:59:45.318Z,46368.00
2019-02-14T09:00:45.340Z,20256.00
2019-02-14T09:01:45.302Z,15156.00
2019-02-14T09:02:45.279Z,15740.00
2019-02-14T09:03:45.266Z,17088.00
2019-02-14T09:04:45.260Z,21056.00
2019-02-14T09:05:45.250Z,12320.00
2019-02-14T09:06:45.305Z,10292.00
2019-02-14T09:07:53.832Z,9968.00
2019-02-14T09:08:46.213Z,9224.00
2019-02-14T09:09:45.203Z,7404.00
2019-02-14T09:10:45.195Z,7200.00
2019-02-14T09:11:45.188Z,7232.00
2019-02-14T09:12:45.247Z,7344.00
2019-02-14T09:13:45.158Z,6688.00
2019-02-14T09:14:45.148Z,7432.00
2019-02-14T09:15:45.138Z,7640.00
2019-02-14T09:16:45.132Z,6336.00
2019-02-14T09:17:45.118Z,6296.00
2019-02-14T09:18:55.558Z,6984.00
2019-02-14T09:19:45.096Z,7268.00
2019-02-14T09:20:45.084Z,7896.00
2019-02-14T09:21:45.080Z,7576.00
2019-02-14T09:22:52.061Z,7720.00
2019-02-14T09:23:45.056Z,8364.00
2019-02-14T09:24:45.216Z,9364.00
2019-02-14T09:25:45.030Z,9512.00
2019-02-14T09:26:45.027Z,9996.00
2019-02-14T09:27:45.051Z,10360.00
2019-02-14T09:28:45.007Z,11140.00
2019-02-14T09:29:44.992Z,11540.00
2019-02-14T09:30:45.054Z,11128.00
2019-02-14T09:31:44.975Z,11060.00
2019-02-14T09:32:44.960Z,11212.00
2019-02-14T09:33:44.952Z,10612.00
2019-02-14T09:34:44.938Z,10048.00
2019-02-14T09:35:44.931Z,9932.00
2019-02-14T09:36:44.963Z,10556.00
2019-02-14T09:37:44.923Z,12232.00
2019-02-14T09:38:44.900Z,13424.00
2019-02-14T09:39:44.886Z,14268.00
2019-02-14T09:40:44.882Z,13772.00
2019-02-14T09:41:44.868Z,13520.00
2019-02-14T09:42:44.898Z,15140.00
2019-02-14T09:43:44.848Z,16736.00
2019-02-14T09:44:44.852Z,16896.00
2019-02-14T09:45:44.822Z,37888.00
2019-02-14T09:46:44.810Z,19360.00
2019-02-14T09:47:44.810Z,16768.00
2019-02-14T09:48:44.800Z,14368.00
2019-02-14T09:49:44.794Z,13976.00
2019-02-14T09:50:44.770Z,14328.00
2019-02-14T09:51:44.764Z,15716.00
2019-02-14T09:52:44.771Z,18112.00
2019-02-14T09:53:56.103Z,19328.00
2019-02-14T09:54:44.744Z,18528.00
2019-02-14T09:55:44.722Z,16608.00
2019-02-14T09:56:44.718Z,15228.00
2019-02-14T09:57:44.734Z,15248.00
2019-02-14T09:58:44.681Z,17408.00
2019-02-14T09:59:44.847Z,17280.00
2019-02-14T10:00:44.686Z,22336.00
2019-02-14T10:01:44.647Z,31680.00
2019-02-14T10:02:44.677Z,19488.00
2019-02-14T10:03:44.628Z,18944.00
2019-02-14T10:04:44.624Z,19488.00
2019-02-14T10:05:44.664Z,16288.00
2019-02-14T10:06:44.623Z,15376.00
2019-02-14T10:07:44.605Z,15760.00
2019-02-14T10:08:52.211Z,16512.00
2019-02-14T10:09:44.624Z,16896.00
2019-02-14T10:10:44.589Z,17024.00
2019-02-14T10:11:44.601Z,17472.00
2019-02-14T10:12:45.805Z,18080.00
2019-02-14T10:13:45.526Z,19296.00
2019-02-14T10:14:44.618Z,53184.00
2019-02-14T10:15:44.538Z,79936.00
2019-02-14T10:16:47.517Z,21536.00
2019-02-14T10:17:45.504Z,20672.00
2019-02-14T10:18:44.502Z,20960.00
2019-02-14T10:19:45.009Z,17760.00
2019-02-14T10:20:44.538Z,20768.00
2019-02-14T10:21:44.451Z,17920.00
2019-02-14T10:22:44.590Z,14480.00
2019-02-14T10:23:44.477Z,14212.00
2019-02-14T10:24:44.416Z,14872.00
2019-02-14T10:25:44.427Z,13252.00
2019-02-14T10:26:49.248Z,10940.00
2019-02-14T10:27:44.430Z,10236.00
2019-02-14T10:28:44.433Z,10108.00
2019-02-14T10:29:44.362Z,10180.00
2019-02-14T10:30:44.366Z,10192.00
2019-02-14T10:31:44.422Z,10252.00
2019-02-14T10:32:44.321Z,10676.00
2019-02-14T10:33:44.319Z,11144.00
2019-02-14T10:34:52.200Z,11408.00
2019-02-14T10:35:44.308Z,11628.00
2019-02-14T10:36:44.298Z,11796.00
2019-02-14T10:37:44.269Z,11732.00
2019-02-14T10:38:45.267Z,12320.00
2019-02-14T10:39:44.240Z,14352.00
2019-02-14T10:40:44.263Z,16576.00
2019-02-14T10:41:44.214Z,17792.00
2019-02-14T10:42:44.204Z,17920.00
2019-02-14T10:43:48.765Z,17184.00
2019-02-14T10:44:44.178Z,17024.00
2019-02-14T10:45:44.187Z,18400.00
2019-02-14T10:46:44.244Z,19904.00
2019-02-14T10:47:44.150Z,19808.00
2019-02-14T10:48:44.143Z,20224.00
2019-02-14T10:49:44.151Z,20960.00
2019-02-14T10:50:44.138Z,23776.00
2019-02-14T10:51:44.100Z,29120.00
2019-02-14T10:52:44.227Z,20000.00
2019-02-14T10:53:44.088Z,16960.00
2019-02-14T10:54:45.073Z,15108.00
2019-02-14T10:55:44.063Z,15144.00
2019-02-14T10:56:44.066Z,16448.00
2019-02-14T10:57:44.042Z,16672.00
2019-02-14T10:58:44.042Z,16384.00
2019-02-14T10:59:44.014Z,15416.00
2019-02-14T11:00:45.305Z,14000.00
2019-02-14T11:01:43.993Z,13328.00
2019-02-14T11:02:43.995Z,13300.00
2019-02-14T11:03:44.007Z,13600.00
2019-02-14T11:04:43.984Z,13340.00
2019-02-14T11:05:55.113Z,12676.00
2019-02-14T11:06:43.945Z,12884.00
2019-02-14T11:07:43.978Z,13280.00
2019-02-14T11:08:43.925Z,13916.00
2019-02-14T11:09:43.950Z,14700.00
2019-02-14T11:10:43.898Z,15932.00
2019-02-14T11:11:43.886Z,17600.00
2019-02-14T11:12:43.883Z,19808.00
2019-02-14T11:13:43.879Z,21184.00
2019-02-14T11:14:43.852Z,20704.00
2019-02-14T11:15:51.243Z,19936.00
2019-02-14T11:16:43.833Z,20384.00
2019-02-14T11:17:43.827Z,22144.00
2019-02-14T11:18:44.671Z,22624.00
2019-02-14T11:19:43.803Z,19872.00
2019-02-14T11:20:43.805Z,17152.00
2019-02-14T11:21:43.822Z,15204.00
2019-02-14T11:22:43.776Z,13932.00
2019-02-14T11:23:43.762Z,13280.00
2019-02-14T11:24:43.748Z,12868.00
2019-02-14T11:25:43.815Z,12056.00
2019-02-14T11:26:43.755Z,12160.00
2019-02-14T11:27:43.733Z,12468.00
2019-02-14T11:28:43.757Z,13604.00
2019-02-14T11:29:43.697Z,13892.00
2019-02-14T11:30:43.684Z,15596.00
2019-02-14T11:31:43.673Z,21056.00
2019-02-14T11:32:43.670Z,21600.00
2019-02-14T11:33:43.727Z,19392.00
2019-02-14T11:34:43.717Z,19072.00
2019-02-14T11:35:43.649Z,16896.00
2019-02-14T11:36:43.625Z,16064.00
2019-02-14T11:37:43.609Z,17600.00
2019-02-14T11:38:43.605Z,18880.00
2019-02-14T11:39:43.633Z,19232.00
2019-02-14T11:40:43.587Z,18976.00
2019-02-14T11:41:43.569Z,17152.00
2019-02-14T11:42:43.557Z,18336.00
2019-02-14T11:43:43.558Z,23712.00
2019-02-14T11:44:43.539Z,32768.00
2019-02-14T11:45:43.561Z,19936.00
2019-02-14T11:46:53.565Z,20512.00
2019-02-14T11:47:43.507Z,21088.00
2019-02-14T11:48:43.491Z,18944.00
2019-02-14T11:49:43.484Z,19424.00
2019-02-14T11:50:43.476Z,16736.00
2019-02-14T11:51:43.495Z,14064.00
2019-02-14T11:52:43.456Z,9860.00
2019-02-14T11:53:43.438Z,10084.00
2019-02-14T11:54:43.433Z,10256.00
2019-02-14T11:55:43.423Z,9596.00
2019-02-14T11:56:43.413Z,9708.00
2019-02-14T11:57:43.574Z,10184.00
2019-02-14T11:58:43.397Z,11484.00
2019-02-14T11:59:43.387Z,10652.00
2019-02-14T12:00:43.361Z,8984.00
2019-02-14T12:01:43.358Z,8472.00
2019-02-14T12:02:43.345Z,8236.00
2019-02-14T12:03:43.366Z,7272.00
2019-02-14T12:04:43.323Z,7352.00
2019-02-14T12:05:43.312Z,7660.00
2019-02-14T12:06:43.388Z,8284.00
2019-02-14T12:07:43.294Z,8136.00
2019-02-14T12:08:52.986Z,7640.00
2019-02-14T12:09:44.310Z,7620.00
2019-02-14T12:10:43.255Z,7760.00
2019-02-14T12:11:43.248Z,7508.00
2019-02-14T12:12:43.303Z,6864.00
2019-02-14T12:13:43.225Z,6488.00
2019-02-14T12:14:43.232Z,6088.00
2019-02-14T12:15:43.242Z,5644.00
2019-02-14T12:16:43.189Z,5468.00
2019-02-14T12:17:53.124Z,5568.00
2019-02-14T12:18:43.168Z,5700.00
2019-02-14T12:19:43.164Z,5788.00
2019-02-14T12:20:43.153Z,6040.00
2019-02-14T12:21:43.184Z,6304.00